Terminal Aerodrome Forecast
Issued by NWS

Home | Current Version | Previous Version | Text Only | Print | Product List | Glossary On
Versions: 1 2 3 4 5 6 7 8 9 10 11 12
000
FTUS45 KRIW 261723
TAFCOD
TAF
KCOD 261723Z 2618/2718 14008KT P6SM SCT100
     FM270100 24010KT P6SM BKN150
     FM271100 25010G20KT P6SM SCT100 BKN150
     FM271600 25010G20KT P6SM VCSH SCT080 BKN150
      AMD LTD TO CLD VIS AND WIND=

USA.gov is the U.S. government's official web portal to all federal, state and local government web resources and services.